Time;durP1;ratioP1;P1;durP2;ratioP2;P2;SDS_P1;SDS_P2;PMS_P1;PMS_P2;Temp;Humidity;BMP_temperature;BMP_pressure;BME280_temperature;BME280_humidity;BME280_pressure;Samples;Min_cycle;Max_cycle;Signal;HPM_P1;HPM_P2
2023/10/31 00:00:55;;;;;;;1.97;1.63;;;;;;;-143.84;95.64;45096.66;5130417;27;20450;-53
2023/10/31 00:03:22;;;;;;;4.10;2.93;;;;;;;-143.84;95.70;45123.34;5132168;27;20871;-53
2023/10/31 00:05:49;;;;;;;1.97;1.37;;;;;;;-143.84;96.13;45104.28;5131728;27;20449;-53
2023/10/31 00:08:17;;;;;;;4.43;1.77;;;;;;;-143.84;95.99;45130.94;5131893;27;20437;-53
2023/10/31 00:10:46;;;;;;;2.53;1.77;;;;;;;-143.84;95.70;45117.63;5131767;27;21174;-53
2023/10/31 00:13:13;;;;;;;2.70;2.50;;;;;;;-143.84;95.56;45115.72;5131728;27;20438;-53
2023/10/31 00:15:40;;;;;;;1.33;1.23;;;;;;;-143.84;95.28;45119.53;5131707;27;20491;-54
2023/10/31 00:18:07;;;;;;;1.30;1.20;;;;;;;-143.84;95.35;45106.19;5131749;27;20507;-53
2023/10/31 00:20:34;;;;;;;2.40;1.93;;;;;;;-143.84;95.97;45130.94;5131675;27;20495;-53
2023/10/31 00:23:01;;;;;;;1.50;1.40;;;;;;;-143.84;96.06;45115.72;5131347;27;20431;-53
2023/10/31 00:25:30;;;;;;;1.70;1.20;;;;;;;-143.84;96.09;45140.47;5131127;27;20434;-53
2023/10/31 00:27:57;;;;;;;2.27;1.80;;;;;;;-143.84;96.12;45127.13;5130938;27;20441;-53
2023/10/31 00:30:24;;;;;;;1.70;1.60;;;;;;;-143.84;96.36;45110.00;5131463;27;20495;-53
2023/10/31 00:32:51;;;;;;;1.63;1.53;;;;;;;-143.84;96.42;45125.22;5131344;27;20434;-53
2023/10/31 00:35:19;;;;;;;2.53;1.80;;;;;;;-143.84;96.52;45096.66;5121502;27;20842;-53
2023/10/31 00:37:46;;;;;;;1.20;1.10;;;;;;;-143.84;96.34;45117.63;5110824;28;20481;-53
2023/10/31 00:40:13;;;;;;;1.87;1.77;;;;;;;-143.84;96.30;45104.28;5110556;28;20451;-53
2023/10/31 00:42:42;;;;;;;1.57;1.43;;;;;;;-143.84;96.27;45134.75;5110019;28;21049;-53
2023/10/31 00:45:10;;;;;;;1.43;1.33;;;;;;;-143.84;95.90;45129.03;5110224;28;20940;-53
2023/10/31 00:47:37;;;;;;;1.13;1.03;;;;;;;-143.84;95.76;45104.28;5104047;28;20972;-53
2023/10/31 00:50:05;;;;;;;1.47;1.13;;;;;;;-143.84;95.85;45121.44;5110066;28;20551;-52
2023/10/31 00:52:32;;;;;;;1.67;1.33;;;;;;;-143.84;96.07;45096.66;5110241;28;20447;-52
2023/10/31 00:54:59;;;;;;;1.90;1.70;;;;;;;-143.84;96.28;45094.78;5110376;28;21002;-53
2023/10/31 00:57:26;;;;;;;1.13;1.03;;;;;;;-143.84;96.22;45100.47;5110026;28;20536;-53
2023/10/31 00:59:55;;;;;;;1.40;1.23;;;;;;;-143.84;96.19;45123.34;5110164;28;20799;-53
2023/10/31 01:02:22;;;;;;;1.37;1.00;;;;;;;-143.84;96.58;45110.00;5109567;28;20443;-53
2023/10/31 01:04:49;;;;;;;2.70;1.07;;;;;;;-143.84;96.95;45134.75;5110265;28;20442;-53
2023/10/31 01:07:17;;;;;;;1.43;0.80;;;;;;;-143.84;97.40;45140.47;5110202;28;21221;-53
2023/10/31 01:09:44;;;;;;;1.47;1.37;;;;;;;-143.84;97.61;45142.38;5110347;28;20447;-53
2023/10/31 01:12:12;;;;;;;1.30;1.20;;;;;;;-143.84;98.21;45110.00;5110187;28;20851;-52
2023/10/31 01:14:39;;;;;;;1.50;1.10;;;;;;;-143.84;98.89;45123.34;5104251;28;20435;-52
2023/10/31 01:17:08;;;;;;;0.97;0.87;;;;;;;-143.84;99.34;45130.94;5109821;28;20482;-53
2023/10/31 01:19:35;;;;;;;0.90;0.80;;;;;;;-143.84;100.00;45144.28;5109725;28;20443;-52
2023/10/31 01:22:02;;;;;;;0.90;0.80;;;;;;;-143.84;100.00;45125.22;5109630;28;20445;-53
2023/10/31 01:24:29;;;;;;;1.33;1.23;;;;;;;-143.84;100.00;45113.81;5109947;28;20438;-53
2023/10/31 01:26:56;;;;;;;1.30;1.20;;;;;;;-143.84;100.00;45140.47;5109790;28;20438;-53
2023/10/31 01:29:23;;;;;;;1.57;0.93;;;;;;;-143.84;100.00;45123.34;5103689;28;20454;-53
2023/10/31 01:31:50;;;;;;;1.33;1.23;;;;;;;-143.84;100.00;45125.22;5109349;28;20496;-53
2023/10/31 01:34:19;;;;;;;2.10;2.00;;;;;;;-143.84;100.00;45123.34;5109513;28;20482;-53
2023/10/31 01:36:46;;;;;;;1.20;0.73;;;;;;;-143.84;100.00;45119.53;5109553;28;20480;-52
2023/10/31 01:39:13;;;;;;;1.87;1.70;;;;;;;-143.84;100.00;45132.84;5109427;28;20495;-53
2023/10/31 01:41:42;;;;;;;1.37;1.27;;;;;;;-143.84;100.00;45115.72;5109461;28;20439;-53
2023/10/31 01:44:09;;;;;;;1.10;0.60;;;;;;;-143.84;100.00;45108.09;5109711;28;20441;-53
2023/10/31 01:46:36;;;;;;;1.10;0.97;;;;;;;-143.84;100.00;45134.75;5109287;28;20979;-53
2023/10/31 01:49:04;;;;;;;3.03;1.47;;;;;;;-143.84;100.00;45150.00;5109540;28;21056;-53
2023/10/31 01:51:32;;;;;;;1.57;1.47;;;;;;;-143.84;100.00;45115.72;5109589;28;20437;-53
2023/10/31 01:53:59;;;;;;;1.00;0.90;;;;;;;-143.84;100.00;45132.84;5109388;28;20483;-53
2023/10/31 01:56:27;;;;;;;2.00;1.50;;;;;;;-143.84;100.00;45129.03;5109107;28;20453;-53
2023/10/31 01:58:55;;;;;;;1.23;0.80;;;;;;;-143.84;100.00;45142.38;5109171;28;20502;-53
2023/10/31 02:01:22;;;;;;;1.33;1.23;;;;;;;-143.84;100.00;45138.56;5109200;28;20443;-53
2023/10/31 02:03:49;;;;;;;0.80;0.50;;;;;;;-143.84;100.00;45138.56;5109685;28;20474;-53
2023/10/31 02:06:17;;;;;;;1.20;0.70;;;;;;;-143.84;100.00;45102.38;5109248;28;20436;-53
2023/10/31 02:08:48;;;;;;;0.90;0.60;;;;;;;-143.84;100.00;45127.13;5103183;28;20530;-53
2023/10/31 02:11:15;;;;;;;1.63;1.27;;;;;;;-143.84;100.00;45159.50;5109046;28;20443;-53
2023/10/31 02:13:42;;;;;;;1.23;1.13;;;;;;;-143.84;100.00;45155.69;5109365;28;20852;-53
2023/10/31 02:16:09;;;;;;;1.20;1.10;;;;;;;-143.84;100.00;45138.56;5108920;28;20439;-53
2023/10/31 02:18:36;;;;;;;1.20;0.87;;;;;;;-143.84;100.00;45146.19;5109135;28;20478;-53
2023/10/31 02:21:04;;;;;;;1.10;1.00;;;;;;;-143.84;100.00;45136.66;5109007;28;20892;-53
2023/10/31 02:23:33;;;;;;;0.93;0.83;;;;;;;-143.84;100.00;45138.56;5108913;28;20994;-53
2023/10/31 02:26:00;;;;;;;1.10;0.90;;;;;;;-143.84;100.00;45129.03;5108624;28;21361;-53
2023/10/31 02:28:27;;;;;;;3.10;1.00;;;;;;;-143.84;100.00;45150.00;5109225;28;20442;-53
2023/10/31 02:30:55;;;;;;;1.10;1.00;;;;;;;-143.84;100.00;45151.91;5109186;28;20535;-53
2023/10/31 02:33:22;;;;;;;1.37;1.27;;;;;;;-143.84;100.00;45134.75;5109192;28;20515;-54
2023/10/31 02:35:49;;;;;;;1.60;1.40;;;;;;;-143.84;100.00;45123.34;5108725;28;20535;-54
2023/10/31 02:38:16;;;;;;;2.50;1.60;;;;;;;-143.84;100.00;45130.94;5108820;28;20513;-54
2023/10/31 02:40:45;;;;;;;1.10;1.00;;;;;;;-143.84;100.00;45125.22;5108532;28;20530;-54
2023/10/31 02:43:12;;;;;;;2.17;1.70;;;;;;;-143.84;100.00;45132.84;5108354;28;20443;-54
2023/10/31 02:45:39;;;;;;;1.60;0.73;;;;;;;-143.84;100.00;45113.81;5108124;28;20832;-54
2023/10/31 02:48:06;;;;;;;1.60;1.50;;;;;;;-143.84;100.00;45123.34;5107873;28;20438;-54
2023/10/31 02:50:33;;;;;;;1.20;1.00;;;;;;;-143.84;100.00;45130.94;5111417;28;20492;-54
2023/10/31 02:53:00;;;;;;;2.00;1.07;;;;;;;-143.84;100.00;45138.56;5112256;28;20450;-53
2023/10/31 02:55:28;;;;;;;1.17;0.83;;;;;;;-143.84;100.00;45108.09;5105831;28;20431;-53
2023/10/31 02:57:56;;;;;;;2.77;1.57;;;;;;;-143.84;100.00;45127.13;5112580;28;20528;-53
2023/10/31 03:00:24;;;;;;;2.20;1.57;;;;;;;-143.84;100.00;45140.47;5111338;28;20447;-53
2023/10/31 03:02:51;;;;;;;1.00;0.90;;;;;;;-143.84;100.00;45123.34;5128895;27;20522;-53
2023/10/31 03:05:18;;;;;;;1.50;1.30;;;;;;;-143.84;100.00;45121.44;5132902;27;20940;-53
2023/10/31 03:07:45;;;;;;;1.40;1.30;;;;;;;-143.84;100.00;45119.53;5133204;27;20445;-53
2023/10/31 03:10:13;;;;;;;4.70;1.70;;;;;;;-143.84;100.00;45121.44;5132788;27;21025;-53
2023/10/31 03:12:40;;;;;;;1.37;1.13;;;;;;;-143.84;100.00;45113.81;5112194;28;21197;-53
2023/10/31 03:15:09;;;;;;;1.73;0.77;;;;;;;-143.84;100.00;45136.66;5112285;28;21148;-53
2023/10/31 03:17:37;;;;;;;1.60;1.50;;;;;;;-143.84;100.00;45115.72;5112093;28;20535;-53
2023/10/31 03:20:05;;;;;;;1.20;1.10;;;;;;;-143.84;100.00;45132.84;5112517;28;21023;-53
2023/10/31 03:22:32;;;;;;;1.43;1.00;;;;;;;-143.84;100.00;45117.63;5109502;28;20442;-53
2023/10/31 03:24:59;;;;;;;1.10;1.00;;;;;;;-143.84;100.00;45138.56;5109235;28;20960;-53
2023/10/31 03:27:26;;;;;;;1.00;0.67;;;;;;;-143.84;100.00;45132.84;5112067;28;20450;-53
2023/10/31 03:29:53;;;;;;;1.37;0.90;;;;;;;-143.84;100.00;45159.50;5111951;28;20446;-53
2023/10/31 03:32:21;;;;;;;0.90;0.57;;;;;;;-143.84;100.00;45102.38;5112100;28;20443;-54
2023/10/31 03:34:48;;;;;;;1.57;1.27;;;;;;;-143.84;100.00;45129.03;5111783;28;20482;-53
2023/10/31 03:37:15;;;;;;;1.53;1.43;;;;;;;-143.84;100.00;45129.03;5112026;28;21234;-53
2023/10/31 03:39:43;;;;;;;1.87;1.27;;;;;;;-143.84;100.00;45146.19;5112337;28;20431;-53
2023/10/31 03:42:10;;;;;;;1.30;1.20;;;;;;;-143.84;100.00;45129.03;5111696;28;20435;-54
2023/10/31 03:44:37;;;;;;;0.90;0.80;;;;;;;-143.84;100.00;45125.22;5111777;28;20423;-54
2023/10/31 03:47:04;;;;;;;1.10;0.83;;;;;;;-143.84;100.00;45132.84;5111549;28;21024;-54
2023/10/31 03:49:32;;;;;;;1.60;1.50;;;;;;;-143.84;100.00;45148.09;5111398;28;20442;-53
2023/10/31 03:52:00;;;;;;;1.00;0.80;;;;;;;-143.84;100.00;45159.50;5111447;28;20446;-53
2023/10/31 03:54:27;;;;;;;1.53;1.43;;;;;;;-143.84;100.00;45142.38;5111447;28;20434;-53
2023/10/31 03:56:54;;;;;;;1.00;0.90;;;;;;;-143.84;100.00;45142.38;5111470;28;20442;-53
2023/10/31 03:59:21;;;;;;;1.07;0.97;;;;;;;-143.84;100.00;45142.38;5111507;28;20932;-53
2023/10/31 04:01:48;;;;;;;1.50;1.40;;;;;;;-143.84;100.00;45153.81;5117272;27;20435;-53
2023/10/31 04:04:15;;;;;;;1.00;0.90;;;;;;;-143.84;100.00;45129.03;5111431;28;20455;-53
2023/10/31 04:06:44;;;;;;;2.00;1.63;;;;;;;-143.84;100.00;45138.56;5111069;28;20449;-53
2023/10/31 04:09:11;;;;;;;1.60;1.50;;;;;;;-143.84;100.00;45140.47;5105194;28;20476;-54
2023/10/31 04:11:39;;;;;;;2.00;1.57;;;;;;;-143.84;100.00;45119.53;5110988;28;20523;-53
2023/10/31 04:14:06;;;;;;;1.70;1.43;;;;;;;-143.84;100.00;45138.56;5110943;28;20451;-52
2023/10/31 04:16:38;;;;;;;1.37;1.20;;;;;;;-143.84;100.00;45129.03;5111096;28;20435;-52
2023/10/31 04:19:05;;;;;;;0.90;0.60;;;;;;;-143.84;100.00;45138.56;5111157;28;20485;-53
2023/10/31 04:21:33;;;;;;;2.43;1.67;;;;;;;-143.84;100.00;45123.34;5110953;28;20932;-53
2023/10/31 04:24:02;;;;;;;5.33;1.50;;;;;;;-143.84;100.00;45138.56;5111058;28;20985;-53
2023/10/31 04:26:29;;;;;;;0.90;0.60;;;;;;;-143.84;100.00;45121.44;5111021;28;20435;-53
2023/10/31 04:28:56;;;;;;;2.90;0.97;;;;;;;-143.84;100.00;45138.56;5108641;28;20474;-55
2023/10/31 04:31:24;;;;;;;1.47;0.93;;;;;;;-143.84;100.00;45142.38;5097589;28;20526;-56
2023/10/31 04:33:51;;;;;;;1.00;0.90;;;;;;;-143.84;100.00;45142.38;5110878;28;20451;-56
2023/10/31 04:36:18;;;;;;;1.90;1.03;;;;;;;-143.84;100.00;45140.47;5110620;28;20467;-56
2023/10/31 04:38:45;;;;;;;2.73;1.40;;;;;;;-143.84;100.00;45121.44;5110400;28;20543;-56
2023/10/31 04:41:13;;;;;;;0.90;0.70;;;;;;;-143.84;100.00;45134.75;5110540;28;20491;-56
2023/10/31 04:43:41;;;;;;;2.37;0.80;;;;;;;-143.84;100.00;45127.13;5108685;28;20452;-56
2023/10/31 04:46:08;;;;;;;2.50;1.50;;;;;;;-143.84;100.00;45119.53;5104589;28;20451;-56
2023/10/31 04:48:36;;;;;;;1.10;0.70;;;;;;;-143.84;100.00;45146.19;5104974;28;21392;-56
2023/10/31 04:51:03;;;;;;;1.77;0.63;;;;;;;-143.84;100.00;45155.69;5093939;28;20482;-56
2023/10/31 04:53:32;;;;;;;1.70;1.23;;;;;;;-143.84;100.00;45144.28;5096330;28;21605;-56
2023/10/31 04:55:59;;;;;;;2.80;1.10;;;;;;;-143.84;100.00;45151.91;5092550;28;20473;-56
2023/10/31 04:58:28;;;;;;;1.10;1.00;;;;;;;-143.84;100.00;45153.81;5096726;28;20479;-56
2023/10/31 05:00:55;;;;;;;4.83;1.07;;;;;;;-143.84;100.00;45132.84;5094399;27;20447;-56
2023/10/31 05:03:22;;;;;;;1.60;1.50;;;;;;;-143.84;100.00;45129.03;5098733;28;20509;-56
2023/10/31 05:05:49;;;;;;;1.33;1.23;;;;;;;-143.84;100.00;45148.09;5096534;28;20434;-56
2023/10/31 05:08:16;;;;;;;1.70;1.60;;;;;;;-143.84;100.00;45144.28;5100069;28;20829;-56
2023/10/31 05:10:44;;;;;;;2.33;1.37;;;;;;;-143.84;100.00;45134.75;5098610;28;20496;-56
2023/10/31 05:13:11;;;;;;;2.40;0.90;;;;;;;-143.84;100.00;45110.00;5097963;28;20469;-56
2023/10/31 05:15:39;;;;;;;3.70;1.17;;;;;;;-143.84;100.00;45121.44;5105732;28;20446;-56
2023/10/31 05:18:07;;;;;;;1.90;1.80;;;;;;;-143.84;100.00;45148.09;5109797;28;20862;-56
2023/10/31 05:20:34;;;;;;;1.43;1.00;;;;;;;-143.84;100.00;45144.28;5109972;28;20435;-56
2023/10/31 05:23:01;;;;;;;1.33;1.23;;;;;;;-143.84;100.00;45153.81;5109689;28;20442;-56
2023/10/31 05:25:28;;;;;;;1.40;1.30;;;;;;;-143.84;100.00;45140.47;5109154;28;20443;-56
2023/10/31 05:27:55;;;;;;;1.63;1.03;;;;;;;-143.84;100.00;45146.19;5109543;28;20442;-56
2023/10/31 05:30:23;;;;;;;1.07;0.97;;;;;;;-143.84;100.00;45132.84;5109391;28;20491;-56
2023/10/31 05:32:52;;;;;;;1.67;1.07;;;;;;;-143.84;100.00;45151.91;5109200;28;20439;-56
2023/10/31 05:35:19;;;;;;;1.60;1.50;;;;;;;-143.84;100.00;45140.47;5109164;28;20852;-56
2023/10/31 05:37:47;;;;;;;1.40;1.30;;;;;;;-143.84;100.00;45125.22;5109456;28;20493;-56
2023/10/31 05:40:16;;;;;;;1.40;1.30;;;;;;;-143.84;100.00;45140.47;5109380;28;20504;-56
2023/10/31 05:42:43;;;;;;;0.90;0.80;;;;;;;-143.84;100.00;45153.81;5109369;28;20431;-56
2023/10/31 05:45:11;;;;;;;1.00;0.90;;;;;;;-143.84;100.00;45157.59;5109474;28;20443;-56
2023/10/31 05:47:38;;;;;;;2.43;2.23;;;;;;;-143.84;100.00;45121.44;5109340;28;20813;-56
2023/10/31 05:50:09;;;;;;;2.10;1.40;;;;;;;-143.84;100.00;45138.56;5109325;28;20803;-56
2023/10/31 05:52:36;;;;;;;2.60;1.70;;;;;;;-143.84;100.00;45153.81;5106334;28;20440;-56
2023/10/31 05:55:03;;;;;;;1.53;1.20;;;;;;;-143.84;100.00;45132.84;5106623;28;20455;-56
2023/10/31 05:57:31;;;;;;;1.17;0.97;;;;;;;-143.84;100.00;45138.56;5109489;28;20449;-56
2023/10/31 05:59:58;;;;;;;1.53;1.43;;;;;;;-143.84;100.00;45163.31;5108467;28;20499;-56
2023/10/31 06:02:25;;;;;;;1.57;1.47;;;;;;;-143.84;100.00;45150.00;5108895;28;20944;-56
2023/10/31 06:04:52;;;;;;;1.47;1.37;;;;;;;-143.84;99.61;45136.66;5109043;28;20488;-56
2023/10/31 06:07:20;;;;;;;1.67;1.57;;;;;;;-143.84;99.69;45110.00;5109152;28;20442;-56
2023/10/31 06:09:47;;;;;;;1.37;1.27;;;;;;;-143.84;99.59;45144.28;5109203;28;20455;-56
2023/10/31 06:12:15;;;;;;;1.40;1.30;;;;;;;-143.84;99.29;45153.81;5108992;28;20488;-56
2023/10/31 06:14:42;;;;;;;1.30;1.20;;;;;;;-143.84;99.57;45132.84;5109008;28;20435;-56
2023/10/31 06:17:09;;;;;;;2.47;2.07;;;;;;;-143.84;99.63;45146.19;5109183;28;20527;-56
2023/10/31 06:19:36;;;;;;;1.60;1.50;;;;;;;-143.84;99.44;45136.66;5108981;28;21172;-56
2023/10/31 06:22:04;;;;;;;2.03;1.83;;;;;;;-143.84;98.55;45136.66;5109287;28;20443;-56
2023/10/31 06:24:32;;;;;;;1.10;1.00;;;;;;;-143.84;98.55;45117.63;5109930;28;20434;-56
2023/10/31 06:27:00;;;;;;;1.30;1.00;;;;;;;-143.84;98.52;45127.13;5113337;28;20852;-56
2023/10/31 06:29:27;;;;;;;1.00;0.90;;;;;;;-143.84;98.77;45146.19;5112896;28;20504;-56
2023/10/31 06:31:54;;;;;;;0.90;0.70;;;;;;;-143.84;99.05;45123.34;5113054;28;20439;-56
2023/10/31 06:34:21;;;;;;;1.43;1.33;;;;;;;-143.84;99.71;45132.84;5112888;28;20558;-56
2023/10/31 06:36:48;;;;;;;1.20;1.10;;;;;;;-143.84;99.77;45146.19;5113029;28;20443;-56
2023/10/31 06:39:15;;;;;;;1.50;1.40;;;;;;;-143.84;99.98;45151.91;5112165;28;21010;-56
2023/10/31 06:41:44;;;;;;;1.40;1.30;;;;;;;-143.84;99.78;45115.72;5113200;28;20500;-56
2023/10/31 06:44:11;;;;;;;1.40;1.30;;;;;;;-143.84;99.54;45150.00;5113074;28;20431;-56
2023/10/31 06:46:38;;;;;;;1.67;1.27;;;;;;;-143.84;98.82;45153.81;5113162;28;21084;-56
2023/10/31 06:49:05;;;;;;;1.37;1.27;;;;;;;-143.84;98.69;45144.28;5112887;28;20447;-56
2023/10/31 06:51:32;;;;;;;1.57;1.47;;;;;;;-143.84;98.13;45106.19;5112674;28;20434;-56
2023/10/31 06:53:59;;;;;;;1.10;0.97;;;;;;;-143.84;97.94;45129.03;5112737;28;20443;-56
2023/10/31 06:56:28;;;;;;;4.10;2.40;;;;;;;-143.84;97.92;45136.66;5112839;28;20431;-56
2023/10/31 06:58:57;;;;;;;1.43;1.33;;;;;;;-143.84;97.50;45123.34;5112302;28;20554;-56
2023/10/31 07:01:24;;;;;;;2.57;1.97;;;;;;;-143.84;97.14;45132.84;5112454;28;20440;-56
2023/10/31 07:03:51;;;;;;;1.10;0.93;;;;;;;-143.84;96.75;45132.84;5112512;28;20951;-56
2023/10/31 07:06:18;;;;;;;1.33;1.23;;;;;;;-143.84;96.04;45117.63;5105199;28;20443;-56
2023/10/31 07:08:45;;;;;;;1.97;1.60;;;;;;;-143.84;95.92;45146.19;5111898;28;20435;-56
2023/10/31 07:11:12;;;;;;;1.00;0.77;;;;;;;-143.84;95.65;45123.34;5112603;28;20929;-56
2023/10/31 07:13:39;;;;;;;1.43;1.33;;;;;;;-143.84;95.92;45115.72;5112529;28;20840;-56
2023/10/31 07:16:09;;;;;;;1.10;1.00;;;;;;;-143.84;96.13;45111.91;5112650;28;20430;-56
2023/10/31 07:18:36;;;;;;;0.90;0.67;;;;;;;-143.84;95.87;45111.91;5112738;28;20657;-56
2023/10/31 07:21:03;;;;;;;1.50;1.37;;;;;;;-143.84;95.73;45129.03;5112650;28;20438;-56
2023/10/31 07:23:30;;;;;;;1.23;1.13;;;;;;;-143.84;95.22;45125.22;5112223;28;20450;-56
2023/10/31 07:25:58;;;;;;;1.10;1.00;;;;;;;-143.84;94.78;45134.75;5112260;28;20450;-56
2023/10/31 07:28:25;;;;;;;2.10;1.90;;;;;;;-143.84;94.10;45110.00;5112551;28;20461;-56
2023/10/31 07:30:53;;;;;;;1.10;1.00;;;;;;;-143.84;94.26;45132.84;5112581;28;20445;-56
2023/10/31 07:33:21;;;;;;;2.03;1.33;;;;;;;-143.84;94.23;45121.44;5111875;28;20963;-56
2023/10/31 07:35:48;;;;;;;1.33;0.80;;;;;;;-143.84;94.42;45127.13;5111557;28;21205;-56
2023/10/31 07:38:15;;;;;;;1.30;1.13;;;;;;;-143.84;94.00;45125.22;5111506;28;20801;-56
2023/10/31 07:40:43;;;;;;;2.13;1.90;;;;;;;-143.84;94.11;45123.34;5111683;28;20495;-56
2023/10/31 07:43:10;;;;;;;1.20;0.93;;;;;;;-143.84;93.07;45111.91;5111787;28;20496;-56
2023/10/31 07:45:37;;;;;;;1.37;1.07;;;;;;;-143.84;92.92;45125.22;5106172;28;20511;-56
2023/10/31 07:48:04;;;;;;;1.37;1.27;;;;;;;-143.84;92.52;45129.03;5099081;28;20456;-53
2023/10/31 07:50:32;;;;;;;1.10;1.00;;;;;;;-143.84;92.00;45125.22;5100067;28;20482;-53
2023/10/31 07:53:00;;;;;;;1.30;1.20;;;;;;;-143.84;92.47;45104.28;5098048;28;20928;-53
2023/10/31 07:55:27;;;;;;;1.20;0.90;;;;;;;-143.84;92.00;45117.63;5110970;28;20567;-53
2023/10/31 07:57:54;;;;;;;1.10;0.97;;;;;;;-143.84;91.92;45100.47;5109849;28;20450;-56
2023/10/31 08:00:21;;;;;;;1.83;1.20;;;;;;;-143.84;92.00;45121.44;5101233;28;20494;-56
2023/10/31 08:02:49;;;;;;;2.17;2.00;;;;;;;-143.84;92.23;45111.91;5096032;28;20455;-56
2023/10/31 08:05:16;;;;;;;15.80;2.27;;;;;;;-143.84;92.26;45130.94;5094694;28;20969;-56
2023/10/31 08:07:44;;;;;;;2.60;1.50;;;;;;;-143.84;92.22;45125.22;5098427;27;20446;-56
2023/10/31 08:10:11;;;;;;;1.33;0.90;;;;;;;-143.84;91.75;45117.63;5095848;27;20558;-56
2023/10/31 08:12:39;;;;;;;2.07;1.67;;;;;;;-143.84;92.23;45113.81;5107512;28;20455;-56
2023/10/31 08:15:07;;;;;;;1.07;0.90;;;;;;;-143.84;91.23;45113.81;5102884;28;20451;-56
2023/10/31 08:17:34;;;;;;;1.47;1.30;;;;;;;-143.84;91.21;45100.47;5110904;28;20435;-56
2023/10/31 08:20:03;;;;;;;1.47;1.23;;;;;;;-143.84;91.46;45115.72;5110838;28;20478;-56
2023/10/31 08:22:30;;;;;;;1.03;0.93;;;;;;;-143.84;91.75;45113.81;5111156;28;20443;-56
2023/10/31 08:24:58;;;;;;;1.53;1.10;;;;;;;-143.84;90.66;45117.63;5110936;28;20440;-56
2023/10/31 08:27:25;;;;;;;1.40;1.27;;;;;;;-143.84;91.09;45115.72;5095831;28;20462;-56
2023/10/31 08:29:53;;;;;;;1.10;0.83;;;;;;;-143.84;90.39;45104.28;5110261;28;20492;-56
2023/10/31 08:32:22;;;;;;;1.40;0.83;;;;;;;-143.84;88.11;45117.63;5110620;28;20501;-56
2023/10/31 08:34:49;;;;;;;1.03;0.93;;;;;;;-143.84;89.15;45121.44;5110452;28;20471;-56
2023/10/31 08:37:16;;;;;;;1.37;1.27;;;;;;;-143.84;88.54;45104.28;5110555;28;20443;-56
2023/10/31 08:39:44;;;;;;;1.13;1.03;;;;;;;-143.84;87.33;45132.84;5107100;28;20552;-56
2023/10/31 08:42:12;;;;;;;1.40;1.30;;;;;;;-143.84;87.82;45092.88;5101085;28;20452;-56
2023/10/31 08:44:41;;;;;;;1.30;1.20;;;;;;;-143.84;86.57;45073.81;5106318;28;20905;-56
2023/10/31 08:47:08;;;;;;;0.90;0.63;;;;;;;-143.84;85.02;45098.56;5091852;28;20543;-56
2023/10/31 08:49:36;;;;;;;1.00;0.90;;;;;;;-143.84;85.13;45094.78;5096369;28;20459;-56
2023/10/31 08:52:04;;;;;;;1.67;1.30;;;;;;;-143.84;85.67;45085.25;5100870;28;20452;-56
2023/10/31 08:54:31;;;;;;;1.83;1.70;;;;;;;-143.84;85.89;45094.78;5101960;28;20562;-56
2023/10/31 08:56:58;;;;;;;1.20;0.97;;;;;;;-143.84;84.56;45098.56;5101511;28;20439;-56
2023/10/31 08:59:26;;;;;;;1.00;0.90;;;;;;;-143.84;84.64;45092.88;5102001;28;20479;-56
2023/10/31 09:01:54;;;;;;;1.47;1.37;;;;;;;-143.84;84.49;45085.25;5103192;27;20507;-56
2023/10/31 09:04:21;;;;;;;0.90;0.60;;;;;;;-143.84;82.98;45071.91;5130786;27;20430;-56
2023/10/31 09:06:48;;;;;;;1.10;0.97;;;;;;;-143.84;82.50;45092.88;5111777;27;20460;-56
2023/10/31 09:09:15;;;;;;;1.70;1.33;;;;;;;-143.84;81.21;45066.22;5109976;28;20832;-56
2023/10/31 09:11:42;;;;;;;1.30;1.00;;;;;;;-143.84;80.90;45070.00;5110080;28;20802;-55
2023/10/31 09:14:09;;;;;;;1.40;1.17;;;;;;;-143.84;80.19;45089.06;5102513;28;20459;-56
2023/10/31 09:16:38;;;;;;;1.30;1.20;;;;;;;-143.84;80.28;45090.97;5095754;28;20462;-56
2023/10/31 09:19:05;;;;;;;1.60;1.50;;;;;;;-143.84;81.39;45092.88;5106764;27;20479;-55
2023/10/31 09:21:33;;;;;;;1.20;1.07;;;;;;;-143.84;79.49;45075.72;5108108;28;20844;-56
2023/10/31 09:24:00;;;;;;;0.90;0.60;;;;;;;-143.84;78.94;45087.16;5099347;28;20459;-56
2023/10/31 09:26:27;;;;;;;1.10;1.00;;;;;;;-143.84;78.68;45073.81;5102792;28;20501;-56
2023/10/31 09:28:54;;;;;;;1.03;0.93;;;;;;;-143.84;80.58;45083.34;5108887;28;21052;-56
2023/10/31 09:31:21;;;;;;;0.90;0.60;;;;;;;-143.84;80.95;45087.16;5105161;28;20439;-56
2023/10/31 09:33:49;;;;;;;1.30;1.20;;;;;;;-143.84;81.39;45090.97;5105197;27;20479;-55
2023/10/31 09:36:17;;;;;;;1.00;0.90;;;;;;;-143.84;80.34;45054.78;5107810;27;20502;-55
2023/10/31 09:38:44;;;;;;;0.90;0.57;;;;;;;-143.84;77.03;45090.97;5123451;27;20434;-55
2023/10/31 09:41:13;;;;;;;2.30;1.73;;;;;;;-143.84;78.30;45094.78;5126158;27;20444;-55
2023/10/31 09:43:41;;;;;;;1.63;1.00;;;;;;;-143.84;76.58;45092.88;5130273;27;20430;-56
2023/10/31 09:46:09;;;;;;;1.00;0.70;;;;;;;-143.84;75.40;45092.88;5130116;27;20438;-56
2023/10/31 09:48:36;;;;;;;0.90;0.70;;;;;;;-143.84;76.60;45096.66;5129702;27;20477;-55
2023/10/31 09:51:07;;;;;;;1.30;1.00;;;;;;;-143.84;73.81;45098.56;5130081;27;20434;-56
2023/10/31 09:53:38;;;;;;;1.13;0.90;;;;;;;-143.84;74.43;45096.66;5129605;27;20521;-55
2023/10/31 09:56:07;;;;;;;1.17;1.07;;;;;;;-143.84;73.88;45062.41;5129789;27;20438;-55
2023/10/31 09:58:34;;;;;;;1.10;1.00;;;;;;;-143.84;73.41;45054.78;5129880;27;20442;-55
2023/10/31 10:01:01;;;;;;;0.90;0.80;;;;;;;-143.84;71.88;45089.06;5129941;27;21026;-56
2023/10/31 10:03:28;;;;;;;1.27;1.17;;;;;;;-143.84;70.49;45068.13;5110442;27;20435;-55
2023/10/31 10:05:56;;;;;;;1.10;0.83;;;;;;;-143.84;72.46;45056.69;5109220;28;20439;-56
2023/10/31 10:08:24;;;;;;;1.13;1.00;;;;;;;-143.84;73.54;45052.88;5109468;28;20469;-55
2023/10/31 10:10:52;;;;;;;1.00;0.70;;;;;;;-143.84;74.55;45066.22;5109084;28;20443;-55
2023/10/31 10:13:21;;;;;;;0.90;0.70;;;;;;;-143.84;73.24;45062.41;5108959;28;20435;-55
2023/10/31 10:15:52;;;;;;;1.00;0.80;;;;;;;-143.84;72.91;45106.19;5109131;28;20439;-55
2023/10/31 10:18:29;;;;;;;0.90;0.80;;;;;;;-143.84;72.68;45073.81;5108296;28;20439;-55
2023/10/31 10:20:57;;;;;;;1.00;0.90;;;;;;;-143.84;72.11;45110.00;5108545;28;20471;-56
2023/10/31 10:23:26;;;;;;;2.03;1.10;;;;;;;-143.84;72.90;45073.81;5108766;28;20583;-55
2023/10/31 10:25:54;;;;;;;1.60;1.20;;;;;;;-143.84;72.75;45064.31;5108808;28;20447;-55
2023/10/31 10:28:21;;;;;;;2.27;1.00;;;;;;;-143.84;72.35;45056.69;5108365;28;20847;-55
2023/10/31 10:30:49;;;;;;;0.90;0.50;;;;;;;-143.84;72.65;45100.47;5108378;28;20439;-55
2023/10/31 10:33:17;;;;;;;1.30;0.87;;;;;;;-143.84;74.61;45068.13;5108078;28;20451;-55
2023/10/31 10:35:45;;;;;;;1.10;1.00;;;;;;;-143.84;74.84;45081.44;5108494;28;20877;-55
2023/10/31 10:38:13;;;;;;;1.23;1.00;;;;;;;-143.84;76.36;45077.63;5108276;28;20968;-55
2023/10/31 10:40:44;;;;;;;1.10;0.70;;;;;;;-143.84;77.36;45083.34;5108218;28;20766;-55
2023/10/31 10:43:18;;;;;;;1.30;1.20;;;;;;;-143.84;78.57;45102.38;5108108;28;20439;-55
2023/10/31 10:45:46;;;;;;;1.10;1.00;;;;;;;-143.84;79.74;45083.34;5108232;28;20439;-55
2023/10/31 10:48:16;;;;;;;1.10;1.00;;;;;;;-143.84;79.48;45075.72;5107671;28;20913;-55
2023/10/31 10:50:49;;;;;;;0.80;0.50;;;;;;;-143.84;80.25;45071.91;5108107;28;20446;-55
2023/10/31 10:53:25;;;;;;;1.63;1.50;;;;;;;-143.84;80.68;45083.34;5108406;28;20540;-55
2023/10/31 10:56:01;;;;;;;1.23;1.07;;;;;;;-143.84;81.38;45071.91;5108649;28;21011;-55
2023/10/31 10:58:35;;;;;;;1.10;1.00;;;;;;;-143.84;81.41;45098.56;5108309;28;20434;-56
2023/10/31 11:01:03;;;;;;;0.90;0.70;;;;;;;-143.84;81.30;45117.63;5108388;28;21008;-55
2023/10/31 11:03:31;;;;;;;1.20;0.90;;;;;;;-143.84;80.52;45064.31;5108396;28;20471;-54
2023/10/31 11:05:58;;;;;;;0.90;0.53;;;;;;;-143.84;80.84;45083.34;5108656;28;20450;-55
2023/10/31 11:08:26;;;;;;;1.50;1.30;;;;;;;-143.84;80.53;45090.97;5108623;28;20508;-55
2023/10/31 11:10:57;;;;;;;1.03;0.93;;;;;;;-143.84;80.99;45085.25;5107960;28;20439;-55
2023/10/31 11:13:25;;;;;;;1.00;0.80;;;;;;;-143.84;79.80;45102.38;5104535;28;20568;-55
2023/10/31 11:15:56;;;;;;;1.30;1.20;;;;;;;-143.84;79.61;45090.97;5112339;28;20537;-54